sensor_id;sensor_type;location;lat;lon;timestamp;temperature;humidity
63013;DHT22;62113;45.624;11.700;2022-07-29T00:00:59;28.70;48.80
63013;DHT22;62113;45.624;11.700;2022-07-29T00:03:25;28.60;49.00
63013;DHT22;62113;45.624;11.700;2022-07-29T00:05:50;28.40;49.50
63013;DHT22;62113;45.624;11.700;2022-07-29T00:08:18;28.40;49.50
63013;DHT22;62113;45.624;11.700;2022-07-29T00:10:44;28.30;50.00
63013;DHT22;62113;45.624;11.700;2022-07-29T00:13:09;28.20;50.20
63013;DHT22;62113;45.624;11.700;2022-07-29T00:15:35;28.20;50.60
63013;DHT22;62113;45.624;11.700;2022-07-29T00:18:00;28.00;51.30
63013;DHT22;62113;45.624;11.700;2022-07-29T00:20:26;28.00;51.40
63013;DHT22;62113;45.624;11.700;2022-07-29T00:22:52;27.90;51.90
63013;DHT22;62113;45.624;11.700;2022-07-29T00:25:18;27.90;51.10
63013;DHT22;62113;45.624;11.700;2022-07-29T00:27:43;27.80;52.30
63013;DHT22;62113;45.624;11.700;2022-07-29T00:30:11;27.70;51.50
63013;DHT22;62113;45.624;11.700;2022-07-29T00:32:36;27.70;52.00
63013;DHT22;62113;45.624;11.700;2022-07-29T00:35:02;27.70;52.90
63013;DHT22;62113;45.624;11.700;2022-07-29T00:37:46;27.70;52.60
63013;DHT22;62113;45.624;11.700;2022-07-29T00:40:11;27.60;54.20
63013;DHT22;62113;45.624;11.700;2022-07-29T00:42:44;27.50;55.80
63013;DHT22;62113;45.624;11.700;2022-07-29T00:45:09;27.50;55.40
63013;DHT22;62113;45.624;11.700;2022-07-29T00:47:35;27.50;52.90
63013;DHT22;62113;45.624;11.700;2022-07-29T00:50:01;27.30;53.20
63013;DHT22;62113;45.624;11.700;2022-07-29T00:52:26;27.20;52.80
63013;DHT22;62113;45.624;11.700;2022-07-29T00:54:52;27.10;54.50
63013;DHT22;62113;45.624;11.700;2022-07-29T00:57:17;27.00;55.50
63013;DHT22;62113;45.624;11.700;2022-07-29T00:59:43;26.90;55.10
63013;DHT22;62113;45.624;11.700;2022-07-29T01:02:08;26.80;56.10
63013;DHT22;62113;45.624;11.700;2022-07-29T01:04:34;26.80;56.30
63013;DHT22;62113;45.624;11.700;2022-07-29T01:07:03;26.80;58.70
63013;DHT22;62113;45.624;11.700;2022-07-29T01:09:29;26.80;59.20
63013;DHT22;62113;45.624;11.700;2022-07-29T01:11:56;26.80;59.00
63013;DHT22;62113;45.624;11.700;2022-07-29T01:14:22;26.80;60.30
63013;DHT22;62113;45.624;11.700;2022-07-29T01:16:51;26.80;60.00
63013;DHT22;62113;45.624;11.700;2022-07-29T01:22:06;26.70;58.60
63013;DHT22;62113;45.624;11.700;2022-07-29T01:30:20;26.60;58.10
63013;DHT22;62113;45.624;11.700;2022-07-29T01:32:47;26.60;57.80
63013;DHT22;62113;45.624;11.700;2022-07-29T01:35:23;26.50;58.40
63013;DHT22;62113;45.624;11.700;2022-07-29T01:37:52;26.50;58.70
63013;DHT22;62113;45.624;11.700;2022-07-29T01:42:50;26.50;59.00
63013;DHT22;62113;45.624;11.700;2022-07-29T01:45:18;26.50;59.90
63013;DHT22;62113;45.624;11.700;2022-07-29T01:47:56;26.40;59.80
63013;DHT22;62113;45.624;11.700;2022-07-29T01:50:26;26.40;59.30
63013;DHT22;62113;45.624;11.700;2022-07-29T01:53:02;26.40;59.70
63013;DHT22;62113;45.624;11.700;2022-07-29T01:55:29;26.30;60.10
63013;DHT22;62113;45.624;11.700;2022-07-29T01:57:56;26.30;60.20
63013;DHT22;62113;45.624;11.700;2022-07-29T02:00:22;26.40;60.60
63013;DHT22;62113;45.624;11.700;2022-07-29T02:02:48;26.40;58.70
63013;DHT22;62113;45.624;11.700;2022-07-29T02:05:15;26.50;58.40
63013;DHT22;62113;45.624;11.700;2022-07-29T02:07:41;26.50;58.20
63013;DHT22;62113;45.624;11.700;2022-07-29T02:10:07;26.50;58.70
63013;DHT22;62113;45.624;11.700;2022-07-29T02:12:34;26.50;59.50
63013;DHT22;62113;45.624;11.700;2022-07-29T02:15:01;26.40;58.80
63013;DHT22;62113;45.624;11.700;2022-07-29T02:17:27;26.40;58.60
63013;DHT22;62113;45.624;11.700;2022-07-29T02:19:59;26.40;58.60
63013;DHT22;62113;45.624;11.700;2022-07-29T02:22:26;26.30;58.40
63013;DHT22;62113;45.624;11.700;2022-07-29T02:24:52;26.30;58.40
63013;DHT22;62113;45.624;11.700;2022-07-29T02:27:19;26.30;58.50
63013;DHT22;62113;45.624;11.700;2022-07-29T02:29:45;26.20;56.80
63013;DHT22;62113;45.624;11.700;2022-07-29T02:32:11;26.30;57.50
63013;DHT22;62113;45.624;11.700;2022-07-29T02:34:38;26.30;57.00
63013;DHT22;62113;45.624;11.700;2022-07-29T02:37:05;26.20;57.60
63013;DHT22;62113;45.624;11.700;2022-07-29T02:39:30;26.20;57.60
63013;DHT22;62113;45.624;11.700;2022-07-29T02:42:07;26.20;58.40
63013;DHT22;62113;45.624;11.700;2022-07-29T02:44:33;26.20;58.30
63013;DHT22;62113;45.624;11.700;2022-07-29T02:47:34;26.10;58.40
63013;DHT22;62113;45.624;11.700;2022-07-29T02:50:00;26.10;58.00
63013;DHT22;62113;45.624;11.700;2022-07-29T02:55:03;26.00;58.50
63013;DHT22;62113;45.624;11.700;2022-07-29T02:57:36;26.00;58.60
63013;DHT22;62113;45.624;11.700;2022-07-29T03:00:07;26.00;58.60
63013;DHT22;62113;45.624;11.700;2022-07-29T03:02:45;25.90;59.00
63013;DHT22;62113;45.624;11.700;2022-07-29T03:05:18;25.90;58.50
63013;DHT22;62113;45.624;11.700;2022-07-29T03:07:46;25.80;58.80
63013;DHT22;62113;45.624;11.700;2022-07-29T03:10:12;25.80;59.90
63013;DHT22;62113;45.624;11.700;2022-07-29T03:12:38;25.80;59.50
63013;DHT22;62113;45.624;11.700;2022-07-29T03:15:05;25.80;59.60
63013;DHT22;62113;45.624;11.700;2022-07-29T03:17:31;25.70;59.50
63013;DHT22;62113;45.624;11.700;2022-07-29T03:19:57;25.80;59.90
63013;DHT22;62113;45.624;11.700;2022-07-29T03:22:23;25.70;60.10
63013;DHT22;62113;45.624;11.700;2022-07-29T03:24:49;25.70;60.20
63013;DHT22;62113;45.624;11.700;2022-07-29T03:27:14;25.70;60.30
63013;DHT22;62113;45.624;11.700;2022-07-29T03:29:40;25.60;60.40
63013;DHT22;62113;45.624;11.700;2022-07-29T03:32:05;25.50;60.90
63013;DHT22;62113;45.624;11.700;2022-07-29T03:34:31;25.50;60.70
63013;DHT22;62113;45.624;11.700;2022-07-29T03:36:56;25.50;61.00
63013;DHT22;62113;45.624;11.700;2022-07-29T03:39:23;25.40;61.50
63013;DHT22;62113;45.624;11.700;2022-07-29T03:41:51;25.50;62.00
63013;DHT22;62113;45.624;11.700;2022-07-29T03:44:17;25.50;62.60
63013;DHT22;62113;45.624;11.700;2022-07-29T03:46:43;25.50;62.20
63013;DHT22;62113;45.624;11.700;2022-07-29T03:49:09;25.30;62.30
63013;DHT22;62113;45.624;11.700;2022-07-29T03:51:36;25.40;62.00
63013;DHT22;62113;45.624;11.700;2022-07-29T03:54:02;25.30;63.30
63013;DHT22;62113;45.624;11.700;2022-07-29T03:56:28;25.30;62.60
63013;DHT22;62113;45.624;11.700;2022-07-29T03:58:54;25.30;62.70
63013;DHT22;62113;45.624;11.700;2022-07-29T04:01:20;25.40;63.40
63013;DHT22;62113;45.624;11.700;2022-07-29T04:03:46;25.40;63.60
63013;DHT22;62113;45.624;11.700;2022-07-29T04:06:11;25.40;62.90
63013;DHT22;62113;45.624;11.700;2022-07-29T04:08:37;25.40;62.90
63013;DHT22;62113;45.624;11.700;2022-07-29T04:11:03;25.40;62.70
63013;DHT22;62113;45.624;11.700;2022-07-29T04:13:29;25.40;61.90
63013;DHT22;62113;45.624;11.700;2022-07-29T04:15:55;25.40;61.00
63013;DHT22;62113;45.624;11.700;2022-07-29T04:18:20;25.40;60.50
63013;DHT22;62113;45.624;11.700;2022-07-29T04:20:46;25.40;59.70
63013;DHT22;62113;45.624;11.700;2022-07-29T04:23:11;25.50;59.50
63013;DHT22;62113;45.624;11.700;2022-07-29T04:25:38;25.50;59.30
63013;DHT22;62113;45.624;11.700;2022-07-29T04:28:04;25.60;59.10
63013;DHT22;62113;45.624;11.700;2022-07-29T04:30:30;25.60;59.00
63013;DHT22;62113;45.624;11.700;2022-07-29T04:32:56;25.60;59.00
63013;DHT22;62113;45.624;11.700;2022-07-29T04:35:21;25.70;58.20
63013;DHT22;62113;45.624;11.700;2022-07-29T04:37:47;25.70;58.50
63013;DHT22;62113;45.624;11.700;2022-07-29T04:40:13;25.70;58.80
63013;DHT22;62113;45.624;11.700;2022-07-29T04:42:38;25.80;58.80
63013;DHT22;62113;45.624;11.700;2022-07-29T04:45:04;25.80;58.80
63013;DHT22;62113;45.624;11.700;2022-07-29T04:47:30;25.90;58.40
63013;DHT22;62113;45.624;11.700;2022-07-29T04:49:55;25.90;57.20
63013;DHT22;62113;45.624;11.700;2022-07-29T04:52:21;26.20;57.70
63013;DHT22;62113;45.624;11.700;2022-07-29T04:54:47;26.60;56.60
63013;DHT22;62113;45.624;11.700;2022-07-29T04:57:13;27.10;53.80
63013;DHT22;62113;45.624;11.700;2022-07-29T04:59:38;27.60;54.10
63013;DHT22;62113;45.624;11.700;2022-07-29T05:02:04;28.00;53.40
63013;DHT22;62113;45.624;11.700;2022-07-29T05:04:29;28.20;53.40
63013;DHT22;62113;45.624;11.700;2022-07-29T05:06:55;28.30;53.30
63013;DHT22;62113;45.624;11.700;2022-07-29T05:09:20;28.40;53.40
63013;DHT22;62113;45.624;11.700;2022-07-29T05:11:45;28.70;53.00
63013;DHT22;62113;45.624;11.700;2022-07-29T05:14:11;29.10;52.10
63013;DHT22;62113;45.624;11.700;2022-07-29T05:16:37;29.50;51.00
63013;DHT22;62113;45.624;11.700;2022-07-29T05:19:04;29.70;50.40
63013;DHT22;62113;45.624;11.700;2022-07-29T05:21:29;29.60;50.10
63013;DHT22;62113;45.624;11.700;2022-07-29T05:23:55;29.40;50.40
63013;DHT22;62113;45.624;11.700;2022-07-29T05:26:20;29.10;50.90
63013;DHT22;62113;45.624;11.700;2022-07-29T05:28:46;28.70;51.50
63013;DHT22;62113;45.624;11.700;2022-07-29T05:31:11;28.50;51.70
63013;DHT22;62113;45.624;11.700;2022-07-29T05:33:37;28.20;52.30
63013;DHT22;62113;45.624;11.700;2022-07-29T05:36:03;28.00;53.00
63013;DHT22;62113;45.624;11.700;2022-07-29T05:38:30;27.90;52.80
63013;DHT22;62113;45.624;11.700;2022-07-29T05:40:56;27.80;53.70
63013;DHT22;62113;45.624;11.700;2022-07-29T05:43:22;27.70;53.60
63013;DHT22;62113;45.624;11.700;2022-07-29T05:45:48;27.70;53.50
63013;DHT22;62113;45.624;11.700;2022-07-29T05:48:13;27.70;53.80
63013;DHT22;62113;45.624;11.700;2022-07-29T05:50:39;27.70;54.30
63013;DHT22;62113;45.624;11.700;2022-07-29T05:53:04;27.70;53.70
63013;DHT22;62113;45.624;11.700;2022-07-29T05:55:30;27.70;53.50
63013;DHT22;62113;45.624;11.700;2022-07-29T05:57:56;27.80;53.50
63013;DHT22;62113;45.624;11.700;2022-07-29T06:00:21;27.90;53.50
63013;DHT22;62113;45.624;11.700;2022-07-29T06:02:47;28.20;52.50
63013;DHT22;62113;45.624;11.700;2022-07-29T06:05:13;28.30;49.80
63013;DHT22;62113;45.624;11.700;2022-07-29T06:07:40;28.50;51.20
63013;DHT22;62113;45.624;11.700;2022-07-29T06:10:06;28.70;49.20
63013;DHT22;62113;45.624;11.700;2022-07-29T06:12:31;28.70;48.80
63013;DHT22;62113;45.624;11.700;2022-07-29T06:14:57;28.90;52.20
63013;DHT22;62113;45.624;11.700;2022-07-29T06:17:23;29.10;51.50
63013;DHT22;62113;45.624;11.700;2022-07-29T06:19:48;29.20;51.30
63013;DHT22;62113;45.624;11.700;2022-07-29T06:22:17;29.50;50.50
63013;DHT22;62113;45.624;11.700;2022-07-29T06:24:42;29.90;50.50
63013;DHT22;62113;45.624;11.700;2022-07-29T06:27:09;30.60;49.60
63013;DHT22;62113;45.624;11.700;2022-07-29T06:29:35;31.40;47.50
63013;DHT22;62113;45.624;11.700;2022-07-29T06:32:00;32.60;44.90
63013;DHT22;62113;45.624;11.700;2022-07-29T06:34:27;33.70;42.80
63013;DHT22;62113;45.624;11.700;2022-07-29T06:36:52;35.00;41.50
63013;DHT22;62113;45.624;11.700;2022-07-29T06:39:18;36.20;39.70
63013;DHT22;62113;45.624;11.700;2022-07-29T06:41:46;37.20;38.20
63013;DHT22;62113;45.624;11.700;2022-07-29T06:44:12;38.10;37.30
63013;DHT22;62113;45.624;11.700;2022-07-29T06:46:38;39.00;36.10
63013;DHT22;62113;45.624;11.700;2022-07-29T06:49:04;39.70;35.00
63013;DHT22;62113;45.624;11.700;2022-07-29T06:51:29;40.40;34.00
63013;DHT22;62113;45.624;11.700;2022-07-29T06:53:55;40.90;33.00
63013;DHT22;62113;45.624;11.700;2022-07-29T06:56:21;41.60;32.10
63013;DHT22;62113;45.624;11.700;2022-07-29T06:58:47;42.10;30.90
63013;DHT22;62113;45.624;11.700;2022-07-29T07:01:12;42.40;30.10
63013;DHT22;62113;45.624;11.700;2022-07-29T07:03:38;42.80;29.00
63013;DHT22;62113;45.624;11.700;2022-07-29T07:06:03;42.80;27.90
63013;DHT22;62113;45.624;11.700;2022-07-29T07:08:29;43.10;28.60
63013;DHT22;62113;45.624;11.700;2022-07-29T07:10:55;43.40;28.40
63013;DHT22;62113;45.624;11.700;2022-07-29T07:13:21;43.30;27.60
63013;DHT22;62113;45.624;11.700;2022-07-29T07:15:47;43.40;27.60
63013;DHT22;62113;45.624;11.700;2022-07-29T07:18:13;43.50;27.50
63013;DHT22;62113;45.624;11.700;2022-07-29T07:20:39;43.40;27.10
63013;DHT22;62113;45.624;11.700;2022-07-29T07:23:04;43.60;27.10
63013;DHT22;62113;45.624;11.700;2022-07-29T07:25:30;44.10;26.80
63013;DHT22;62113;45.624;11.700;2022-07-29T07:27:56;44.60;26.70
63013;DHT22;62113;45.624;11.700;2022-07-29T07:30:21;45.10;26.40
63013;DHT22;62113;45.624;11.700;2022-07-29T07:32:47;45.40;25.90
63013;DHT22;62113;45.624;11.700;2022-07-29T07:35:12;45.20;24.40
63013;DHT22;62113;45.624;11.700;2022-07-29T07:37:38;45.40;25.00
63013;DHT22;62113;45.624;11.700;2022-07-29T07:40:06;45.80;24.80
63013;DHT22;62113;45.624;11.700;2022-07-29T07:42:31;46.40;24.60
63013;DHT22;62113;45.624;11.700;2022-07-29T07:44:57;46.90;22.40
63013;DHT22;62113;45.624;11.700;2022-07-29T07:47:22;44.30;23.40
63013;DHT22;62113;45.624;11.700;2022-07-29T07:49:49;42.70;25.20
63013;DHT22;62113;45.624;11.700;2022-07-29T07:52:16;41.80;27.10
63013;DHT22;62113;45.624;11.700;2022-07-29T07:54:42;41.30;27.00
63013;DHT22;62113;45.624;11.700;2022-07-29T07:57:09;41.00;27.20
63013;DHT22;62113;45.624;11.700;2022-07-29T07:59:34;40.70;27.50
63013;DHT22;62113;45.624;11.700;2022-07-29T08:02:00;40.50;27.90
63013;DHT22;62113;45.624;11.700;2022-07-29T08:04:26;40.50;28.50
63013;DHT22;62113;45.624;11.700;2022-07-29T08:06:51;40.50;28.90
63013;DHT22;62113;45.624;11.700;2022-07-29T08:09:19;40.50;28.50
63013;DHT22;62113;45.624;11.700;2022-07-29T08:11:45;40.60;29.00
63013;DHT22;62113;45.624;11.700;2022-07-29T08:14:10;40.50;29.10
63013;DHT22;62113;45.624;11.700;2022-07-29T08:16:36;39.80;29.50
63013;DHT22;62113;45.624;11.700;2022-07-29T08:19:01;39.20;30.60
63013;DHT22;62113;45.624;11.700;2022-07-29T08:21:27;39.10;30.70
63013;DHT22;62113;45.624;11.700;2022-07-29T08:23:52;39.20;30.40
63013;DHT22;62113;45.624;11.700;2022-07-29T08:26:19;39.30;29.40
63013;DHT22;62113;45.624;11.700;2022-07-29T08:28:45;39.10;30.00
63013;DHT22;62113;45.624;11.700;2022-07-29T08:31:11;38.40;30.50
63013;DHT22;62113;45.624;11.700;2022-07-29T08:33:37;37.80;31.80
63013;DHT22;62113;45.624;11.700;2022-07-29T08:36:02;37.40;31.80
63013;DHT22;62113;45.624;11.700;2022-07-29T08:38:28;37.00;32.60
63013;DHT22;62113;45.624;11.700;2022-07-29T08:40:54;36.70;33.20
63013;DHT22;62113;45.624;11.700;2022-07-29T08:43:19;36.30;33.90
63013;DHT22;62113;45.624;11.700;2022-07-29T08:45:46;35.70;34.70
63013;DHT22;62113;45.624;11.700;2022-07-29T08:50:54;34.70;34.60
63013;DHT22;62113;45.624;11.700;2022-07-29T08:53:21;34.70;34.40
63013;DHT22;62113;45.624;11.700;2022-07-29T08:55:47;34.80;33.90
63013;DHT22;62113;45.624;11.700;2022-07-29T08:58:13;35.00;33.30
63013;DHT22;62113;45.624;11.700;2022-07-29T09:00:41;35.20;33.10
63013;DHT22;62113;45.624;11.700;2022-07-29T09:03:08;35.20;32.70
63013;DHT22;62113;45.624;11.700;2022-07-29T09:05:34;35.20;32.90
63013;DHT22;62113;45.624;11.700;2022-07-29T09:08:00;35.30;32.80
63013;DHT22;62113;45.624;11.700;2022-07-29T09:10:26;35.30;33.40
63013;DHT22;62113;45.624;11.700;2022-07-29T09:12:51;35.20;33.40
63013;DHT22;62113;45.624;11.700;2022-07-29T09:15:17;35.30;34.00
63013;DHT22;62113;45.624;11.700;2022-07-29T09:17:44;35.20;34.10
63013;DHT22;62113;45.624;11.700;2022-07-29T09:20:10;35.30;34.00
63013;DHT22;62113;45.624;11.700;2022-07-29T09:22:36;35.30;34.60
63013;DHT22;62113;45.624;11.700;2022-07-29T09:25:02;35.30;34.20
63013;DHT22;62113;45.624;11.700;2022-07-29T09:27:28;35.30;34.60
63013;DHT22;62113;45.624;11.700;2022-07-29T09:30:04;35.20;35.30
63013;DHT22;62113;45.624;11.700;2022-07-29T09:32:31;35.00;34.60
63013;DHT22;62113;45.624;11.700;2022-07-29T09:38:10;34.70;35.60
63013;DHT22;62113;45.624;11.700;2022-07-29T09:40:36;34.70;35.90
63013;DHT22;62113;45.624;11.700;2022-07-29T09:43:09;34.60;36.00
63013;DHT22;62113;45.624;11.700;2022-07-29T09:45:35;34.50;35.90
63013;DHT22;62113;45.624;11.700;2022-07-29T09:48:15;34.60;36.00
63013;DHT22;62113;45.624;11.700;2022-07-29T09:50:42;34.50;34.50
63013;DHT22;62113;45.624;11.700;2022-07-29T09:53:09;34.40;35.10
63013;DHT22;62113;45.624;11.700;2022-07-29T09:55:50;34.30;35.20
63013;DHT22;62113;45.624;11.700;2022-07-29T09:58:16;34.30;36.80
63013;DHT22;62113;45.624;11.700;2022-07-29T10:00:43;34.20;36.20
63013;DHT22;62113;45.624;11.700;2022-07-29T10:03:08;34.20;36.40
63013;DHT22;62113;45.624;11.700;2022-07-29T10:05:34;34.20;36.00
63013;DHT22;62113;45.624;11.700;2022-07-29T10:07:59;34.10;35.50
63013;DHT22;62113;45.624;11.700;2022-07-29T10:12:52;34.10;34.30
63013;DHT22;62113;45.624;11.700;2022-07-29T10:15:18;34.00;35.90
63013;DHT22;62113;45.624;11.700;2022-07-29T10:17:44;34.00;35.70
63013;DHT22;62113;45.624;11.700;2022-07-29T10:20:10;34.00;36.00
63013;DHT22;62113;45.624;11.700;2022-07-29T10:22:36;34.00;36.00
63013;DHT22;62113;45.624;11.700;2022-07-29T10:25:02;34.10;35.70
63013;DHT22;62113;45.624;11.700;2022-07-29T10:27:28;34.00;35.80
63013;DHT22;62113;45.624;11.700;2022-07-29T10:29:53;33.90;36.00
63013;DHT22;62113;45.624;11.700;2022-07-29T10:32:26;34.00;36.30
63013;DHT22;62113;45.624;11.700;2022-07-29T10:35:06;34.00;36.20
63013;DHT22;62113;45.624;11.700;2022-07-29T10:43:24;33.90;37.00
63013;DHT22;62113;45.624;11.700;2022-07-29T10:45:55;33.90;36.60
63013;DHT22;62113;45.624;11.700;2022-07-29T10:48:20;34.00;36.70
63013;DHT22;62113;45.624;11.700;2022-07-29T10:50:53;34.00;36.40
63013;DHT22;62113;45.624;11.700;2022-07-29T10:53:22;34.20;36.40
63013;DHT22;62113;45.624;11.700;2022-07-29T10:55:48;34.20;36.70
63013;DHT22;62113;45.624;11.700;2022-07-29T10:58:19;34.20;36.70
63013;DHT22;62113;45.624;11.700;2022-07-29T11:00:46;34.10;36.60
63013;DHT22;62113;45.624;11.700;2022-07-29T11:05:56;34.20;37.40
63013;DHT22;62113;45.624;11.700;2022-07-29T11:08:22;34.20;36.10
63013;DHT22;62113;45.624;11.700;2022-07-29T11:10:49;34.10;36.00
63013;DHT22;62113;45.624;11.700;2022-07-29T11:15:59;34.50;36.70
63013;DHT22;62113;45.624;11.700;2022-07-29T11:18:24;34.70;35.30
63013;DHT22;62113;45.624;11.700;2022-07-29T11:20:50;34.70;35.70
63013;DHT22;62113;45.624;11.700;2022-07-29T11:28:34;34.00;36.50
63013;DHT22;62113;45.624;11.700;2022-07-29T11:31:00;34.20;36.60
63013;DHT22;62113;45.624;11.700;2022-07-29T11:33:35;34.20;36.20
63013;DHT22;62113;45.624;11.700;2022-07-29T11:36:34;34.10;36.50
63013;DHT22;62113;45.624;11.700;2022-07-29T11:38:52;34.10;36.10
63013;DHT22;62113;45.624;11.700;2022-07-29T11:41:37;33.90;36.40
63013;DHT22;62113;45.624;11.700;2022-07-29T11:44:04;34.00;36.70
63013;DHT22;62113;45.624;11.700;2022-07-29T11:46:49;34.20;36.30
63013;DHT22;62113;45.624;11.700;2022-07-29T11:49:19;34.30;36.90
63013;DHT22;62113;45.624;11.700;2022-07-29T11:51:49;34.50;36.60
63013;DHT22;62113;45.624;11.700;2022-07-29T11:54:15;34.50;34.50
63013;DHT22;62113;45.624;11.700;2022-07-29T11:56:47;34.50;35.50
63013;DHT22;62113;45.624;11.700;2022-07-29T11:59:12;34.70;34.80
63013;DHT22;62113;45.624;11.700;2022-07-29T12:01:51;34.70;34.70
63013;DHT22;62113;45.624;11.700;2022-07-29T12:04:16;34.70;35.00
63013;DHT22;62113;45.624;11.700;2022-07-29T12:06:42;34.70;35.10
63013;DHT22;62113;45.624;11.700;2022-07-29T12:09:08;34.80;35.10
63013;DHT22;62113;45.624;11.700;2022-07-29T12:11:33;34.70;35.60
63013;DHT22;62113;45.624;11.700;2022-07-29T12:13:59;34.70;35.30
63013;DHT22;62113;45.624;11.700;2022-07-29T12:16:33;34.60;37.30
63013;DHT22;62113;45.624;11.700;2022-07-29T12:18:59;34.60;35.90
63013;DHT22;62113;45.624;11.700;2022-07-29T12:21:25;34.50;35.60
63013;DHT22;62113;45.624;11.700;2022-07-29T12:23:54;34.50;36.30
63013;DHT22;62113;45.624;11.700;2022-07-29T12:26:20;34.40;36.70
63013;DHT22;62113;45.624;11.700;2022-07-29T12:28:45;34.40;36.50
63013;DHT22;62113;45.624;11.700;2022-07-29T12:31:15;34.50;36.20
63013;DHT22;62113;45.624;11.700;2022-07-29T12:33:41;34.50;35.80
63013;DHT22;62113;45.624;11.700;2022-07-29T12:36:07;34.40;36.20
63013;DHT22;62113;45.624;11.700;2022-07-29T12:38:36;34.40;36.40
63013;DHT22;62113;45.624;11.700;2022-07-29T12:41:02;34.30;36.20
63013;DHT22;62113;45.624;11.700;2022-07-29T12:43:28;34.30;36.90
63013;DHT22;62113;45.624;11.700;2022-07-29T12:45:54;34.20;37.20
63013;DHT22;62113;45.624;11.700;2022-07-29T12:48:36;34.00;36.40
63013;DHT22;62113;45.624;11.700;2022-07-29T12:51:02;34.10;36.80
63013;DHT22;62113;45.624;11.700;2022-07-29T12:53:28;34.20;37.60
63013;DHT22;62113;45.624;11.700;2022-07-29T12:55:55;34.20;36.90
63013;DHT22;62113;45.624;11.700;2022-07-29T12:58:37;34.20;36.60
63013;DHT22;62113;45.624;11.700;2022-07-29T13:01:10;34.20;36.40
63013;DHT22;62113;45.624;11.700;2022-07-29T13:03:47;34.20;36.30
63013;DHT22;62113;45.624;11.700;2022-07-29T13:06:29;34.20;35.70
63013;DHT22;62113;45.624;11.700;2022-07-29T13:11:32;34.60;35.30
63013;DHT22;62113;45.624;11.700;2022-07-29T13:13:58;34.90;35.70
63013;DHT22;62113;45.624;11.700;2022-07-29T13:16:23;34.90;35.70
63013;DHT22;62113;45.624;11.700;2022-07-29T13:19:02;34.70;35.70
63013;DHT22;62113;45.624;11.700;2022-07-29T13:21:27;34.60;35.30
63013;DHT22;62113;45.624;11.700;2022-07-29T13:23:53;34.50;36.20
63013;DHT22;62113;45.624;11.700;2022-07-29T13:26:18;34.70;35.80
63013;DHT22;62113;45.624;11.700;2022-07-29T13:28:44;35.00;35.20
63013;DHT22;62113;45.624;11.700;2022-07-29T13:31:10;35.30;34.80
63013;DHT22;62113;45.624;11.700;2022-07-29T13:33:36;35.40;34.60
63013;DHT22;62113;45.624;11.700;2022-07-29T13:36:01;35.20;35.20
63013;DHT22;62113;45.624;11.700;2022-07-29T13:38:27;35.00;34.50
63013;DHT22;62113;45.624;11.700;2022-07-29T13:40:52;35.20;34.80
63013;DHT22;62113;45.624;11.700;2022-07-29T13:43:18;35.20;35.10
63013;DHT22;62113;45.624;11.700;2022-07-29T13:45:43;35.30;34.90
63013;DHT22;62113;45.624;11.700;2022-07-29T13:48:09;35.40;34.20
63013;DHT22;62113;45.624;11.700;2022-07-29T13:50:34;35.50;34.70
63013;DHT22;62113;45.624;11.700;2022-07-29T13:53:00;35.60;34.30
63013;DHT22;62113;45.624;11.700;2022-07-29T13:55:25;35.60;33.80
63013;DHT22;62113;45.624;11.700;2022-07-29T13:57:51;35.60;33.60
63013;DHT22;62113;45.624;11.700;2022-07-29T14:00:16;35.50;33.40
63013;DHT22;62113;45.624;11.700;2022-07-29T14:02:42;35.60;34.50
63013;DHT22;62113;45.624;11.700;2022-07-29T14:05:07;35.60;34.60
63013;DHT22;62113;45.624;11.700;2022-07-29T14:07:33;35.70;33.40
63013;DHT22;62113;45.624;11.700;2022-07-29T14:09:58;35.70;35.70
63013;DHT22;62113;45.624;11.700;2022-07-29T14:12:24;35.80;34.50
63013;DHT22;62113;45.624;11.700;2022-07-29T14:14:50;35.70;34.20
63013;DHT22;62113;45.624;11.700;2022-07-29T14:17:15;35.50;34.50
63013;DHT22;62113;45.624;11.700;2022-07-29T14:19:41;35.20;33.70
63013;DHT22;62113;45.624;11.700;2022-07-29T14:22:07;35.10;35.00
63013;DHT22;62113;45.624;11.700;2022-07-29T14:24:33;35.10;34.30
63013;DHT22;62113;45.624;11.700;2022-07-29T14:26:58;35.20;33.70
63013;DHT22;62113;45.624;11.700;2022-07-29T14:29:24;35.40;35.70
63013;DHT22;62113;45.624;11.700;2022-07-29T14:31:49;35.40;34.40
63013;DHT22;62113;45.624;11.700;2022-07-29T14:34:15;35.20;34.70
63013;DHT22;62113;45.624;11.700;2022-07-29T14:36:41;35.30;34.50
63013;DHT22;62113;45.624;11.700;2022-07-29T14:39:06;35.40;34.90
63013;DHT22;62113;45.624;11.700;2022-07-29T14:41:32;35.40;34.70
63013;DHT22;62113;45.624;11.700;2022-07-29T14:43:58;35.50;34.70
63013;DHT22;62113;45.624;11.700;2022-07-29T14:46:26;35.50;34.50
63013;DHT22;62113;45.624;11.700;2022-07-29T14:48:51;35.40;34.90
63013;DHT22;62113;45.624;11.700;2022-07-29T14:51:17;35.10;34.00
63013;DHT22;62113;45.624;11.700;2022-07-29T14:53:42;35.10;34.80
63013;DHT22;62113;45.624;11.700;2022-07-29T14:56:08;35.00;35.70
63013;DHT22;62113;45.624;11.700;2022-07-29T14:58:34;34.70;36.20
63013;DHT22;62113;45.624;11.700;2022-07-29T15:00:59;34.60;37.30
63013;DHT22;62113;45.624;11.700;2022-07-29T15:03:26;34.40;37.30
63013;DHT22;62113;45.624;11.700;2022-07-29T15:05:53;34.20;36.80
63013;DHT22;62113;45.624;11.700;2022-07-29T15:08:18;34.20;37.30
63013;DHT22;62113;45.624;11.700;2022-07-29T15:10:44;34.10;39.50
63013;DHT22;62113;45.624;11.700;2022-07-29T15:13:09;34.00;38.40
63013;DHT22;62113;45.624;11.700;2022-07-29T15:15:35;34.00;39.70
63013;DHT22;62113;45.624;11.700;2022-07-29T15:18:00;34.10;36.90
63013;DHT22;62113;45.624;11.700;2022-07-29T15:20:26;34.20;37.70
63013;DHT22;62113;45.624;11.700;2022-07-29T15:22:52;34.20;38.20
63013;DHT22;62113;45.624;11.700;2022-07-29T15:25:18;34.20;40.90
63013;DHT22;62113;45.624;11.700;2022-07-29T15:27:44;34.10;38.20
63013;DHT22;62113;45.624;11.700;2022-07-29T15:30:10;34.00;40.70
63013;DHT22;62113;45.624;11.700;2022-07-29T15:32:36;33.80;38.40
63013;DHT22;62113;45.624;11.700;2022-07-29T15:35:01;33.70;40.00
63013;DHT22;62113;45.624;11.700;2022-07-29T15:37:28;33.50;39.10
63013;DHT22;62113;45.624;11.700;2022-07-29T15:39:53;33.40;39.60
63013;DHT22;62113;45.624;11.700;2022-07-29T15:42:19;33.30;39.70
63013;DHT22;62113;45.624;11.700;2022-07-29T15:44:44;33.20;40.70
63013;DHT22;62113;45.624;11.700;2022-07-29T15:47:10;33.00;41.00
63013;DHT22;62113;45.624;11.700;2022-07-29T15:49:36;32.90;40.10
63013;DHT22;62113;45.624;11.700;2022-07-29T15:52:03;32.90;40.50
63013;DHT22;62113;45.624;11.700;2022-07-29T15:54:31;32.90;40.30